Time;durP1;ratioP1;P1;durP2;ratioP2;P2;SDS_P1;SDS_P2;PMS_P1;PMS_P2;Temp;Humidity;BMP_temperature;BMP_pressure;BME280_temperature;BME280_humidity;BME280_pressure;Samples;Min_cycle;Max_cycle;Signal;HPM_P1;HPM_P2
2022/06/10 00:00:25;;;;;;;5.82;1.85;;;13.10;99.90;;;;;;4955681;28;20078;-68
2022/06/10 00:02:52;;;;;;;1.20;0.50;;;13.40;99.90;;;;;;4955207;28;20058;-69
2022/06/10 00:05:23;;;;;;;1.63;0.60;;;13.70;99.00;;;;;;4953440;28;20042;-62
2022/06/10 00:07:52;;;;;;;2.20;0.80;;;13.90;99.10;;;;;;4957764;28;20045;-69
2022/06/10 00:10:23;;;;;;;1.35;0.77;;;14.00;98.00;;;;;;4956233;28;20036;-71
2022/06/10 00:12:50;;;;;;;4.70;1.05;;;14.20;97.50;;;;;;4960118;28;20059;-69
2022/06/10 00:15:18;;;;;;;1.25;0.50;;;14.30;97.30;;;;;;4958690;28;20038;-72
2022/06/10 00:17:45;;;;;;;3.75;1.00;;;14.40;97.00;;;;;;4954709;28;20049;-71
2022/06/10 00:20:15;;;;;;;3.15;0.82;;;14.50;97.20;;;;;;4958145;28;20386;-69
2022/06/10 00:22:42;;;;;;;0.95;0.70;;;14.70;96.70;;;;;;4959765;28;20047;-64
2022/06/10 00:25:10;;;;;;;2.10;0.93;;;14.80;96.30;;;;;;4960550;28;20094;-69
2022/06/10 00:27:37;;;;;;;1.67;0.75;;;14.90;96.20;;;;;;4938752;28;20050;-62
2022/06/10 00:30:07;;;;;;;3.67;1.00;;;15.10;96.40;;;;;;4956966;28;20046;-64
2022/06/10 00:32:35;;;;;;;1.88;0.80;;;15.30;95.70;;;;;;4959987;28;20027;-62
2022/06/10 00:35:02;;;;;;;1.50;0.45;;;15.50;95.00;;;;;;4959046;28;20030;-69
2022/06/10 00:37:29;;;;;;;3.03;0.80;;;15.50;94.20;;;;;;4960397;28;20023;-71
2022/06/10 00:39:56;;;;;;;1.25;0.60;;;15.50;94.20;;;;;;4962439;28;20027;-63
2022/06/10 00:42:24;;;;;;;0.57;0.30;;;15.50;95.00;;;;;;4962192;28;20563;-62
2022/06/10 00:44:54;;;;;;;0.95;0.60;;;15.70;94.80;;;;;;4964189;28;20034;-72
2022/06/10 00:47:32;;;;;;;1.25;0.50;;;15.70;94.40;;;;;;4956195;28;20093;-63
2022/06/10 00:50:31;;;;;;;0.85;0.57;;;15.90;94.50;;;;;;4961796;28;20069;-63
2022/06/10 00:53:05;;;;;;;1.02;0.68;;;16.10;94.70;;;;;;4963272;28;20061;-63
2022/06/10 00:55:36;;;;;;;1.52;0.80;;;16.30;94.50;;;;;;4964819;28;20026;-62
2022/06/10 00:58:22;;;;;;;2.15;0.88;;;16.40;93.40;;;;;;4959436;28;20035;-71
2022/06/10 01:00:49;;;;;;;7.07;1.48;;;16.40;94.10;;;;;;4962008;28;20043;-63
2022/06/10 01:03:17;;;;;;;10.68;3.72;;;16.60;93.90;;;;;;4960051;28;20034;-62
2022/06/10 01:05:44;;;;;;;5.32;2.75;;;16.80;93.70;;;;;;4960448;28;20077;-69
2022/06/10 01:08:14;;;;;;;4.13;0.90;;;17.00;93.40;;;;;;4963174;28;20027;-63
2022/06/10 01:10:48;;;;;;;1.83;0.82;;;16.80;92.40;;;;;;4959989;28;20409;-63
2022/06/10 01:13:15;;;;;;;1.23;0.43;;;16.70;92.70;;;;;;4959664;28;20037;-63
2022/06/10 01:16:10;;;;;;;5.22;0.85;;;16.70;91.10;;;;;;4961680;28;20022;-71
2022/06/10 01:18:46;;;;;;;2.88;1.08;;;16.80;91.10;;;;;;4964658;28;20479;-63
2022/06/10 01:21:37;;;;;;;6.63;0.90;;;16.90;90.30;;;;;;4964628;28;20019;-68
2022/06/10 01:24:16;;;;;;;1.65;0.40;;;16.80;90.50;;;;;;4962296;28;20039;-69
2022/06/10 01:30:14;;;;;;;0.52;0.40;;;17.20;90.50;;;;;;4858256;29;20061;-69
2022/06/10 01:32:41;;;;;;;1.48;0.30;;;17.30;89.40;;;;;;4855592;29;20025;-63
2022/06/10 01:35:21;;;;;;;1.35;0.38;;;17.30;89.20;;;;;;4860169;29;20038;-69
2022/06/10 01:37:59;;;;;;;4.22;0.75;;;17.30;88.80;;;;;;4857517;29;20108;-70
2022/06/10 01:40:39;;;;;;;4.75;0.50;;;17.40;87.40;;;;;;4858231;29;20498;-64
2022/06/10 01:43:22;;;;;;;2.95;0.45;;;17.50;87.20;;;;;;4860673;29;20041;-64
2022/06/10 01:46:24;;;;;;;0.25;0.13;;;17.50;86.60;;;;;;4865492;29;20048;-63
2022/06/10 01:49:16;;;;;;;0.40;0.40;;;17.40;86.70;;;;;;4841017;29;20072;-70
2022/06/10 01:52:05;;;;;;;0.65;0.10;;;17.50;87.00;;;;;;4802864;29;20164;-63
2022/06/10 01:54:37;;;;;;;0.20;0.13;;;17.50;86.00;;;;;;4807511;29;20862;-63
2022/06/10 01:57:11;;;;;;;0.17;0.10;;;17.60;85.30;;;;;;4808289;29;20187;-71
2022/06/10 01:59:52;;;;;;;0.35;0.22;;;17.70;84.00;;;;;;4807881;29;20069;-70
2022/06/10 02:02:25;;;;;;;1.45;0.30;;;17.60;86.00;;;;;;4800305;29;20064;-64
2022/06/10 02:05:02;;;;;;;4.53;0.60;;;17.80;84.50;;;;;;4803129;29;20031;-70
2022/06/10 02:07:38;;;;;;;5.53;0.90;;;17.90;83.90;;;;;;4828510;29;20186;-63
2022/06/10 02:10:18;;;;;;;4.18;0.70;;;17.90;84.40;;;;;;4827987;29;20042;-71
2022/06/10 02:12:50;;;;;;;4.82;2.10;;;18.10;84.10;;;;;;4821350;29;20130;-64
2022/06/10 02:15:32;;;;;;;3.28;0.98;;;18.10;83.50;;;;;;4825186;29;20111;-63
2022/06/10 02:18:31;;;;;;;3.45;0.50;;;18.10;81.50;;;;;;4828026;29;20026;-71
2022/06/10 02:21:07;;;;;;;3.60;0.73;;;18.10;81.70;;;;;;4826849;29;20042;-63
2022/06/10 02:23:42;;;;;;;0.38;0.20;;;18.30;82.90;;;;;;4825126;29;20571;-70
2022/06/10 02:26:11;;;;;;;1.65;0.57;;;18.50;81.50;;;;;;4854908;29;20112;-72
2022/06/10 02:28:42;;;;;;;3.25;0.70;;;18.60;81.70;;;;;;4900082;28;20043;-63
2022/06/10 02:31:23;;;;;;;2.50;0.53;;;18.40;80.50;;;;;;4957671;28;20095;-62
2022/06/10 02:33:51;;;;;;;3.70;0.68;;;18.30;79.60;;;;;;4959209;28;20319;-70
2022/06/10 02:36:32;;;;;;;2.17;0.50;;;18.20;80.70;;;;;;4962873;28;20526;-70
2022/06/10 02:38:59;;;;;;;0.63;0.20;;;18.30;81.40;;;;;;4959018;28;20447;-62
2022/06/10 02:41:49;;;;;;;0.35;0.35;;;18.20;79.70;;;;;;4955671;28;20412;-64
2022/06/10 02:44:42;;;;;;;0.10;0.10;;;18.20;80.70;;;;;;4961680;28;20479;-70
2022/06/10 02:47:15;;;;;;;0.40;0.20;;;18.30;80.10;;;;;;4956107;28;20466;-64
2022/06/10 02:49:42;;;;;;;0.75;0.40;;;18.20;80.20;;;;;;4959156;28;20542;-64
2022/06/10 02:52:13;;;;;;;5.57;0.65;;;18.20;78.80;;;;;;4960430;28;20069;-71
2022/06/10 02:54:43;;;;;;;3.50;0.52;;;18.30;80.20;;;;;;4963849;28;20102;-63
2022/06/10 03:01:11;;;;;;;4.85;1.35;;;18.30;79.90;;;;;;4954760;28;20034;-70
2022/06/10 03:03:16;;;;;;;8.85;0.77;;;18.30;79.70;;;;;;4961055;28;20070;-63
2022/06/10 03:06:01;;;;;;;2.50;0.50;;;18.40;79.00;;;;;;4958555;28;20027;-70
2022/06/10 03:08:49;;;;;;;5.22;0.95;;;18.30;79.90;;;;;;4958742;28;20026;-63
2022/06/10 03:11:45;;;;;;;6.78;0.60;;;18.50;79.60;;;;;;4952872;28;20059;-70
2022/06/10 03:14:41;;;;;;;3.08;0.40;;;18.70;79.70;;;;;;4951433;28;20019;-62
2022/06/10 03:17:41;;;;;;;2.63;0.40;;;18.90;80.00;;;;;;4959410;28;20027;-70
2022/06/10 03:20:32;;;;;;;7.18;0.70;;;18.70;77.30;;;;;;4952251;28;20547;-63
2022/06/10 03:23:22;;;;;;;3.50;0.60;;;18.30;78.00;;;;;;4953216;28;20114;-63
2022/06/10 03:26:00;;;;;;;0.73;0.47;;;18.40;79.80;;;;;;4953031;28;20277;-69
2022/06/10 03:28:46;;;;;;;4.68;1.00;;;18.50;77.40;;;;;;4958974;28;20077;-63
2022/06/10 03:31:22;;;;;;;4.13;0.60;;;18.50;78.90;;;;;;4953107;28;20496;-63
2022/06/10 03:34:02;;;;;;;5.18;0.70;;;18.70;78.30;;;;;;4960656;28;20407;-63
2022/06/10 03:36:31;;;;;;;4.40;0.60;;;18.60;78.70;;;;;;4958365;28;20455;-64
2022/06/10 03:38:59;;;;;;;7.70;0.90;;;18.50;76.30;;;;;;4946386;28;20694;-73
2022/06/10 03:41:32;;;;;;;8.63;0.70;;;18.50;78.10;;;;;;4960954;28;20024;-73
2022/06/10 03:44:02;;;;;;;5.43;0.73;;;18.60;78.00;;;;;;4953344;28;20510;-69
2022/06/10 03:46:32;;;;;;;2.38;0.45;;;18.70;78.20;;;;;;4951387;28;20031;-65
2022/06/10 03:49:03;;;;;;;1.35;0.45;;;18.50;77.00;;;;;;4955747;28;20066;-65
2022/06/10 03:51:32;;;;;;;5.63;1.27;;;18.40;77.90;;;;;;4957782;28;20027;-72
2022/06/10 03:53:59;;;;;;;4.38;0.95;;;18.60;78.90;;;;;;4956828;28;20105;-72
2022/06/10 03:56:26;;;;;;;6.32;0.80;;;18.60;77.80;;;;;;4956318;28;20023;-65
2022/06/10 03:58:54;;;;;;;2.95;0.30;;;18.50;78.70;;;;;;4963029;28;20027;-73
2022/06/10 04:01:21;;;;;;;0.93;0.30;;;18.30;78.20;;;;;;4958958;28;20023;-70
2022/06/10 04:03:48;;;;;;;6.63;0.70;;;18.30;79.00;;;;;;4956369;28;20508;-65
2022/06/10 04:06:17;;;;;;;4.65;0.68;;;18.50;79.30;;;;;;4955990;28;20026;-64
2022/06/10 04:08:45;;;;;;;2.15;1.15;;;18.40;78.90;;;;;;4961414;28;20481;-66
2022/06/10 04:11:12;;;;;;;2.08;0.20;;;18.60;78.50;;;;;;4963021;28;20046;-73
2022/06/10 04:13:39;;;;;;;1.02;0.35;;;18.70;79.10;;;;;;4960212;28;20579;-73
2022/06/10 04:16:06;;;;;;;0.63;0.22;;;18.70;78.10;;;;;;4962538;28;20110;-64
2022/06/10 04:18:34;;;;;;;1.38;0.57;;;18.80;79.30;;;;;;4937506;28;20389;-66
2022/06/10 04:21:01;;;;;;;2.83;0.70;;;18.70;77.80;;;;;;4945015;28;20030;-70
2022/06/10 04:23:28;;;;;;;2.08;0.73;;;18.50;78.10;;;;;;4963806;28;20719;-64
2022/06/10 04:25:55;;;;;;;0.82;0.30;;;18.50;77.60;;;;;;4965423;28;20761;-64
2022/06/10 04:28:22;;;;;;;13.18;0.98;;;18.50;77.70;;;;;;4965132;28;20026;-64
2022/06/10 04:30:51;;;;;;;5.32;0.40;;;18.50;77.00;;;;;;4961958;28;20051;-64
2022/06/10 04:33:19;;;;;;;8.13;0.60;;;18.60;76.90;;;;;;4961360;28;20086;-71
2022/06/10 04:35:49;;;;;;;3.72;0.55;;;18.60;77.70;;;;;;4953464;28;20115;-73
2022/06/10 04:38:19;;;;;;;1.85;0.30;;;18.30;77.80;;;;;;4962431;28;20476;-70
2022/06/10 04:40:48;;;;;;;2.17;0.45;;;18.30;76.10;;;;;;4962032;28;20046;-70
2022/06/10 04:43:16;;;;;;;2.97;0.40;;;18.20;77.20;;;;;;4960369;28;20046;-73
2022/06/10 04:45:49;;;;;;;0.68;0.28;;;18.40;76.60;;;;;;4962035;28;20448;-65
2022/06/10 04:48:17;;;;;;;4.50;0.70;;;18.20;76.90;;;;;;4959731;28;20527;-64
2022/06/10 04:50:47;;;;;;;9.85;1.10;;;18.10;76.90;;;;;;4960201;28;20034;-65
2022/06/10 04:53:14;;;;;;;4.38;0.38;;;18.10;77.60;;;;;;4954191;28;20050;-70
2022/06/10 04:55:42;;;;;;;3.50;0.40;;;18.20;77.60;;;;;;4950280;28;20031;-65
2022/06/10 04:58:09;;;;;;;3.97;0.35;;;18.10;76.50;;;;;;4957084;28;20057;-65
2022/06/10 05:00:40;;;;;;;2.80;0.60;;;18.00;77.80;;;;;;4958960;28;20035;-66
2022/06/10 05:03:08;;;;;;;4.53;1.38;;;18.00;78.10;;;;;;4956299;28;20113;-70
2022/06/10 05:05:35;;;;;;;2.83;0.47;;;18.00;77.40;;;;;;4956021;28;20035;-64
2022/06/10 05:08:03;;;;;;;6.68;1.02;;;18.00;77.00;;;;;;4954724;28;20030;-65
2022/06/10 05:10:31;;;;;;;3.03;0.40;;;18.10;77.70;;;;;;4960630;28;20030;-71
2022/06/10 05:12:58;;;;;;;1.85;0.60;;;18.30;77.50;;;;;;4955913;28;20380;-70
2022/06/10 05:15:28;;;;;;;1.08;0.50;;;18.50;77.50;;;;;;4955569;28;20043;-70
2022/06/10 05:17:57;;;;;;;0.60;0.20;;;18.50;77.00;;;;;;4961899;28;20547;-67
2022/06/10 05:20:28;;;;;;;6.47;0.70;;;18.50;75.90;;;;;;4958536;28;20568;-70
2022/06/10 05:22:55;;;;;;;2.55;0.40;;;18.30;76.40;;;;;;4947113;28;20027;-70
2022/06/10 05:25:23;;;;;;;1.88;0.73;;;18.50;76.80;;;;;;4956953;28;20020;-68
2022/06/10 05:27:50;;;;;;;4.32;1.98;;;18.60;76.50;;;;;;4958933;28;20027;-66
2022/06/10 05:30:20;;;;;;;3.70;0.60;;;18.60;75.60;;;;;;5004134;23;20059;-67
2022/06/10 05:32:48;;;;;;;7.30;0.70;;;18.60;74.70;;;;;;4954966;28;20376;-69
2022/06/10 05:35:16;;;;;;;4.15;0.70;;;18.50;76.00;;;;;;4952588;28;20094;-66
2022/06/10 05:37:49;;;;;;;3.30;0.75;;;18.30;74.50;;;;;;4955178;28;20055;-65
2022/06/10 05:40:17;;;;;;;13.80;1.25;;;18.20;74.60;;;;;;4960625;28;20024;-71
2022/06/10 05:42:45;;;;;;;7.85;0.82;;;18.20;74.60;;;;;;4951200;28;20027;-65
2022/06/10 05:45:14;;;;;;;10.13;1.08;;;18.10;74.30;;;;;;4951587;28;20027;-68
2022/06/10 05:47:42;;;;;;;7.85;1.05;;;17.60;73.90;;;;;;4952311;28;20765;-68
2022/06/10 05:50:14;;;;;;;2.80;0.47;;;16.90;75.80;;;;;;4956674;28;20018;-68
2022/06/10 05:52:42;;;;;;;4.30;0.43;;;16.50;76.70;;;;;;4956152;28;20034;-65
2022/06/10 05:55:10;;;;;;;4.72;0.40;;;16.20;77.20;;;;;;4958415;28;20032;-65
2022/06/10 05:57:41;;;;;;;1.48;0.40;;;16.00;78.00;;;;;;4953105;28;20036;-64
2022/06/10 06:00:13;;;;;;;0.75;0.35;;;15.80;79.20;;;;;;4956504;28;20027;-65
2022/06/10 06:02:41;;;;;;;1.48;0.43;;;15.70;79.60;;;;;;4943213;28;20066;-64
2022/06/10 06:05:10;;;;;;;2.75;0.55;;;15.70;80.10;;;;;;4944469;28;20489;-68
2022/06/10 06:07:40;;;;;;;2.15;0.50;;;15.60;81.40;;;;;;4935546;28;20495;-64
2022/06/10 06:10:10;;;;;;;3.17;0.40;;;15.60;80.80;;;;;;4934770;29;20059;-64
2022/06/10 06:12:37;;;;;;;2.17;0.65;;;15.70;80.20;;;;;;4940606;29;20059;-70
2022/06/10 06:15:05;;;;;;;6.05;2.53;;;15.60;81.00;;;;;;4938757;29;20045;-64
2022/06/10 06:17:32;;;;;;;8.95;1.42;;;15.40;81.50;;;;;;4943510;29;20027;-61
2022/06/10 06:19:59;;;;;;;4.18;1.33;;;15.30;82.00;;;;;;4936448;28;20024;-66
2022/06/10 06:22:27;;;;;;;4.57;0.60;;;15.20;82.30;;;;;;4943413;28;20035;-71
2022/06/10 06:24:54;;;;;;;4.70;0.60;;;15.10;82.30;;;;;;4943039;28;20494;-71
2022/06/10 06:27:21;;;;;;;2.08;0.30;;;15.00;83.40;;;;;;4945799;29;20031;-63
2022/06/10 06:29:50;;;;;;;4.18;0.60;;;15.00;82.60;;;;;;4944536;28;20178;-64
2022/06/10 06:32:17;;;;;;;3.85;0.70;;;14.90;82.50;;;;;;4946036;28;20180;-71
2022/06/10 06:34:44;;;;;;;3.90;1.05;;;14.80;83.20;;;;;;4945026;28;20143;-72
2022/06/10 06:37:15;;;;;;;2.47;1.00;;;14.70;84.20;;;;;;4944342;29;20094;-67
2022/06/10 06:39:42;;;;;;;1.52;0.65;;;14.50;84.10;;;;;;4943689;28;20036;-63
2022/06/10 06:42:12;;;;;;;2.05;0.65;;;14.50;83.40;;;;;;4944432;28;20133;-67
2022/06/10 06:44:40;;;;;;;6.43;2.33;;;14.50;83.80;;;;;;4943917;29;20023;-68
2022/06/10 06:47:13;;;;;;;3.03;0.40;;;14.30;84.10;;;;;;4942057;28;20524;-69
2022/06/10 06:49:40;;;;;;;;;;;14.30;83.70;;;;;;4941275;28;20837;-68
2022/06/10 06:52:08;;;;;;;5.07;0.47;;;14.20;84.60;;;;;;4941503;29;19953;-71
2022/06/10 06:54:37;;;;;;;4.80;0.50;;;14.10;84.70;;;;;;4940309;29;20046;-70
2022/06/10 06:57:06;;;;;;;2.33;0.32;;;14.00;85.30;;;;;;4940060;29;20027;-65
2022/06/10 06:59:35;;;;;;;1.17;0.40;;;13.90;85.30;;;;;;4941540;28;20078;-69
2022/06/10 07:02:02;;;;;;;6.18;0.32;;;13.80;85.90;;;;;;4941849;29;20376;-69
2022/06/10 07:04:29;;;;;;;2.17;0.30;;;13.70;86.30;;;;;;4936900;29;20022;-68
2022/06/10 07:06:59;;;;;;;2.63;0.30;;;13.60;87.10;;;;;;4939180;28;20050;-68
2022/06/10 07:09:27;;;;;;;2.85;0.40;;;13.50;87.40;;;;;;4941826;28;20027;-71
2022/06/10 07:11:54;;;;;;;0.40;0.30;;;13.30;88.60;;;;;;4938171;28;20058;-66
2022/06/10 07:14:22;;;;;;;2.55;0.30;;;13.30;89.60;;;;;;4943919;28;20793;-66
2022/06/10 07:16:53;;;;;;;0.70;0.30;;;13.00;90.10;;;;;;4944027;28;20031;-69
2022/06/10 07:19:21;;;;;;;1.40;0.45;;;13.00;90.00;;;;;;4945242;29;20058;-70
2022/06/10 07:21:49;;;;;;;1.35;0.40;;;12.90;90.30;;;;;;4944759;28;21389;-65
2022/06/10 07:24:17;;;;;;;1.15;0.50;;;12.70;90.80;;;;;;4943840;28;20054;-69
2022/06/10 07:26:44;;;;;;;1.55;0.30;;;12.60;91.30;;;;;;4943762;29;20030;-69
2022/06/10 07:29:11;;;;;;;1.80;0.40;;;12.50;91.40;;;;;;4943592;28;21158;-65
2022/06/10 07:31:41;;;;;;;1.73;0.30;;;12.50;91.60;;;;;;4944822;28;20031;-65
2022/06/10 07:34:12;;;;;;;2.33;0.60;;;12.40;91.40;;;;;;4942967;29;20031;-66
2022/06/10 07:36:42;;;;;;;1.48;0.30;;;12.20;92.40;;;;;;4943073;28;20499;-68
2022/06/10 07:39:12;;;;;;;0.82;0.45;;;12.10;92.70;;;;;;4942691;29;20543;-69
2022/06/10 07:42:00;;;;;;;0.90;0.30;;;12.10;92.60;;;;;;4941966;29;20132;-68
2022/06/10 07:44:33;;;;;;;1.63;0.25;;;12.00;92.40;;;;;;4943834;28;20587;-63
2022/06/10 07:47:07;;;;;;;0.60;0.40;;;12.00;92.20;;;;;;4951561;28;20218;-72
2022/06/10 07:49:34;;;;;;;0.73;0.73;;;12.20;91.70;;;;;;4941841;29;20502;-63
2022/06/10 07:52:03;;;;;;;0.50;0.25;;;12.30;91.70;;;;;;4943131;29;20299;-70
2022/06/10 07:54:31;;;;;;;1.75;0.38;;;12.30;91.50;;;;;;4943389;29;20401;-70
2022/06/10 07:56:58;;;;;;;0.20;0.20;;;12.20;91.80;;;;;;4942720;28;20492;-62
2022/06/10 07:59:26;;;;;;;1.38;0.60;;;12.30;91.80;;;;;;4945223;29;20030;-68
2022/06/10 08:01:53;;;;;;;0.70;0.28;;;12.30;91.60;;;;;;4943796;28;20035;-63
2022/06/10 08:04:20;;;;;;;0.30;0.30;;;12.40;91.60;;;;;;4943255;28;21363;-69
2022/06/10 08:06:47;;;;;;;0.73;0.35;;;12.20;92.10;;;;;;4943736;28;20039;-63
2022/06/10 08:09:20;;;;;;;0.47;0.20;;;12.20;92.10;;;;;;4943141;28;20039;-71
2022/06/10 08:11:52;;;;;;;0.25;0.22;;;12.10;92.40;;;;;;4942046;28;20027;-64
2022/06/10 08:14:19;;;;;;;0.52;0.32;;;12.20;92.20;;;;;;4943383;28;20054;-63
2022/06/10 08:16:47;;;;;;;2.15;0.93;;;12.10;92.60;;;;;;4944506;28;20142;-67
2022/06/10 08:19:14;;;;;;;6.25;2.35;;;11.80;93.00;;;;;;4943297;28;20047;-63
2022/06/10 08:24:27;;;;;;;1.15;0.40;;;11.80;93.20;;;;;;4944461;28;20105;-68
2022/06/10 08:26:54;;;;;;;1.92;0.38;;;11.80;93.40;;;;;;4942782;28;20543;-68
2022/06/10 08:29:22;;;;;;;2.58;0.50;;;11.90;93.00;;;;;;4944103;28;20042;-65
2022/06/10 08:31:50;;;;;;;2.60;0.68;;;11.80;93.30;;;;;;4942828;29;20059;-68
2022/06/10 08:34:17;;;;;;;1.88;0.55;;;11.80;93.60;;;;;;4942208;28;20118;-68
2022/06/10 08:36:45;;;;;;;1.83;1.20;;;11.80;93.10;;;;;;4944523;28;20038;-65
2022/06/10 08:39:12;;;;;;;1.42;0.40;;;11.80;93.20;;;;;;4942601;28;20023;-69
2022/06/10 08:41:54;;;;;;;2.28;0.40;;;11.80;93.30;;;;;;4943174;28;20117;-68
2022/06/10 08:44:55;;;;;;;2.03;0.40;;;11.70;93.40;;;;;;4941962;28;20031;-69
2022/06/10 08:47:49;;;;;;;1.17;0.43;;;11.80;93.40;;;;;;4880098;29;20581;-68
2022/06/10 08:50:23;;;;;;;1.63;0.60;;;11.70;93.70;;;;;;4878472;29;20054;-65
2022/06/10 08:53:02;;;;;;;1.25;0.70;;;11.50;93.90;;;;;;4879393;29;20111;-65
2022/06/10 08:56:09;;;;;;;1.88;1.30;;;11.50;93.90;;;;;;4877328;29;20048;-69
2022/06/10 08:59:01;;;;;;;2.33;0.50;;;11.30;94.10;;;;;;4877882;29;20514;-65
2022/06/10 09:01:46;;;;;;;0.50;0.50;;;11.30;94.00;;;;;;4880171;29;20627;-67
2022/06/10 09:04:30;;;;;;;1.33;0.50;;;11.30;93.90;;;;;;4878502;29;20048;-64
2022/06/10 09:07:02;;;;;;;0.88;0.55;;;11.40;94.00;;;;;;4882984;29;20037;-65
2022/06/10 09:09:32;;;;;;;0.60;0.40;;;11.30;94.00;;;;;;4884351;29;20029;-65
2022/06/10 09:12:11;;;;;;;0.80;0.50;;;11.30;94.00;;;;;;4885430;29;21444;-64
2022/06/10 09:14:41;;;;;;;1.13;0.40;;;11.40;94.00;;;;;;4881875;29;20033;-67
2022/06/10 09:17:37;;;;;;;3.78;0.47;;;11.50;93.50;;;;;;4878273;29;20048;-67
2022/06/10 09:20:32;;;;;;;1.08;0.50;;;11.40;93.70;;;;;;4880399;29;20029;-67
2022/06/10 09:23:13;;;;;;;0.93;0.50;;;11.30;93.90;;;;;;4891432;29;20054;-65
2022/06/10 09:25:45;;;;;;;4.10;0.90;;;11.20;94.30;;;;;;4947593;29;20027;-67
2022/06/10 09:28:13;;;;;;;0.68;0.68;;;11.10;94.30;;;;;;4944998;28;20034;-69
2022/06/10 09:31:00;;;;;;;1.58;0.98;;;10.90;94.90;;;;;;4945864;28;20062;-63
2022/06/10 09:33:59;;;;;;;3.38;1.42;;;10.60;95.50;;;;;;4942675;29;20605;-63
2022/06/10 09:36:45;;;;;;;3.25;1.88;;;10.30;96.30;;;;;;4941632;29;20047;-69
2022/06/10 09:40:36;;;;;;;6.63;4.70;;;10.00;97.30;;;;;;4943504;29;20086;-63
2022/06/10 09:42:23;;;;;;;6.13;3.25;;;9.80;97.90;;;;;;4942751;29;20162;-63
2022/06/10 09:45:19;;;;;;;4.78;2.80;;;9.60;98.20;;;;;;4942404;28;20134;-64
2022/06/10 09:47:55;;;;;;;4.50;3.17;;;9.70;98.20;;;;;;4943496;28;20035;-67
2022/06/10 09:50:31;;;;;;;4.60;2.85;;;9.50;98.50;;;;;;4942777;29;20032;-62
2022/06/10 09:53:27;;;;;;;4.40;3.10;;;9.40;99.20;;;;;;4942161;28;20668;-68
2022/06/10 09:56:34;;;;;;;4.72;2.30;;;9.20;99.60;;;;;;4943678;28;20396;-62
2022/06/10 09:59:04;;;;;;;6.22;2.83;;;9.30;99.50;;;;;;4944137;28;20069;-62
2022/06/10 10:01:44;;;;;;;3.85;2.38;;;9.50;99.00;;;;;;4943396;28;20126;-65
2022/06/10 10:04:43;;;;;;;4.30;2.08;;;9.40;99.60;;;;;;4942069;28;20070;-64
2022/06/10 10:07:19;;;;;;;2.88;1.60;;;9.20;99.90;;;;;;4942260;29;20762;-65
2022/06/10 10:10:11;;;;;;;4.10;1.60;;;9.20;99.90;;;;;;4944365;28;20030;-65
2022/06/10 10:12:48;;;;;;;3.28;1.25;;;9.10;99.90;;;;;;4942206;29;20903;-65
2022/06/10 10:15:43;;;;;;;2.17;1.42;;;9.20;99.90;;;;;;4945030;28;20031;-69
2022/06/10 10:18:41;;;;;;;3.20;1.52;;;9.50;99.70;;;;;;4942738;29;20023;-69
2022/06/10 10:21:08;;;;;;;1.42;1.25;;;9.70;99.30;;;;;;4943271;28;20019;-69
2022/06/10 10:23:46;;;;;;;1.55;1.20;;;9.80;99.20;;;;;;4942398;28;20098;-65
2022/06/10 10:26:23;;;;;;;1.92;1.20;;;10.00;98.80;;;;;;4942318;29;20046;-68
2022/06/10 10:29:04;;;;;;;1.52;1.00;;;9.90;99.10;;;;;;4943430;29;20158;-69
2022/06/10 10:31:38;;;;;;;1.63;1.33;;;9.90;99.30;;;;;;4923404;29;20050;-67
2022/06/10 10:34:06;;;;;;;3.33;1.35;;;9.60;99.90;;;;;;4923190;29;20038;-63
2022/06/10 10:36:55;;;;;;;2.28;1.45;;;9.40;99.90;;;;;;4922534;29;20468;-64
2022/06/10 10:39:30;;;;;;;4.63;1.40;;;9.20;99.90;;;;;;4923978;29;20705;-70
2022/06/10 10:42:01;;;;;;;2.95;1.70;;;8.90;99.90;;;;;;4924314;29;20039;-69
2022/06/10 10:44:45;;;;;;;2.90;1.48;;;8.90;99.90;;;;;;4925388;29;20496;-63
2022/06/10 10:47:15;;;;;;;3.30;1.50;;;8.90;99.90;;;;;;4924072;29;20081;-68
2022/06/10 10:50:17;;;;;;;2.97;1.63;;;8.70;99.90;;;;;;4926279;29;20086;-64
2022/06/10 10:52:45;;;;;;;4.85;2.53;;;8.50;99.90;;;;;;4923359;29;20119;-64
2022/06/10 10:55:18;;;;;;;7.43;2.88;;;8.60;99.90;;;;;;4924746;29;20072;-68
2022/06/10 10:58:14;;;;;;;;;;;8.80;99.90;;;;;;4920852;29;20111;-68
2022/06/10 11:00:44;;;;;;;2.97;2.00;;;9.10;99.90;;;;;;4902721;29;20269;-63
2022/06/10 11:03:25;;;;;;;3.38;1.70;;;9.10;99.90;;;;;;4903115;29;20027;-69
2022/06/10 11:05:54;;;;;;;2.55;1.70;;;9.10;99.90;;;;;;4904099;29;20044;-64
2022/06/10 11:08:30;;;;;;;2.72;1.83;;;9.00;99.90;;;;;;4903071;29;20941;-63
2022/06/10 11:11:03;;;;;;;3.35;1.75;;;8.90;99.90;;;;;;4903305;29;20142;-69
2022/06/10 11:13:55;;;;;;;2.38;1.67;;;8.70;99.90;;;;;;4903000;29;20060;-68
2022/06/10 11:16:29;;;;;;;2.60;1.58;;;8.60;99.90;;;;;;4903037;29;20239;-69
2022/06/10 11:19:05;;;;;;;1.95;1.50;;;8.60;99.90;;;;;;4901613;29;20038;-63
2022/06/10 11:22:06;;;;;;;1.90;1.23;;;8.40;99.90;;;;;;4901686;29;20036;-64
2022/06/10 11:25:02;;;;;;;3.40;1.60;;;8.20;99.90;;;;;;4903185;29;20048;-69
2022/06/10 11:27:52;;;;;;;1.98;1.38;;;8.20;99.90;;;;;;4866342;29;20171;-64
2022/06/10 11:30:23;;;;;;;2.60;1.67;;;8.20;99.90;;;;;;4848323;29;20829;-69
2022/06/10 11:32:51;;;;;;;4.43;1.60;;;8.10;99.90;;;;;;4848031;29;20531;-64
2022/06/10 11:35:43;;;;;;;3.42;2.28;;;7.90;99.90;;;;;;4849947;29;20540;-65
2022/06/10 11:38:28;;;;;;;4.35;2.40;;;7.90;99.90;;;;;;4826780;29;20114;-64
2022/06/10 11:40:59;;;;;;;2.22;2.03;;;8.00;99.90;;;;;;4828280;29;20045;-68
2022/06/10 11:43:31;;;;;;;2.63;2.05;;;7.80;99.90;;;;;;4828503;29;20042;-67
2022/06/10 11:46:26;;;;;;;4.57;2.03;;;7.70;99.90;;;;;;4829317;29;20034;-68
2022/06/10 11:49:11;;;;;;;3.28;2.22;;;7.60;99.90;;;;;;4830915;29;20033;-68
2022/06/10 11:51:41;;;;;;;6.43;2.53;;;7.80;99.90;;;;;;4828290;29;20140;-68
2022/06/10 11:54:37;;;;;;;3.58;2.63;;;7.90;99.90;;;;;;4829032;29;20036;-68
2022/06/10 12:00:12;;;;;;;3.92;2.33;;;7.60;99.90;;;;;;4829867;29;20097;-69
2022/06/10 12:03:07;;;;;;;5.03;2.10;;;7.50;99.90;;;;;;4830352;29;20034;-68
2022/06/10 12:06:01;;;;;;;3.17;2.30;;;7.50;99.90;;;;;;4904403;29;20705;-69
2022/06/10 12:08:56;;;;;;;3.60;2.03;;;7.40;99.90;;;;;;4904777;29;20032;-65
2022/06/10 12:11:40;;;;;;;2.63;2.38;;;7.40;99.90;;;;;;4906078;29;20041;-64
2022/06/10 12:14:22;;;;;;;2.58;2.00;;;7.20;99.90;;;;;;4906402;29;20804;-72
2022/06/10 12:17:11;;;;;;;4.07;2.45;;;7.30;99.90;;;;;;4906536;29;20036;-72
2022/06/10 12:19:51;;;;;;;4.38;2.10;;;7.10;99.90;;;;;;4898156;29;20497;-69
2022/06/10 12:22:19;;;;;;;2.42;1.75;;;7.00;99.90;;;;;;4900442;29;20044;-72
2022/06/10 12:24:49;;;;;;;3.00;2.50;;;7.10;99.90;;;;;;4900043;29;20071;-64
2022/06/10 12:27:29;;;;;;;5.10;3.65;;;7.20;99.90;;;;;;4901072;29;20040;-72
2022/06/10 12:30:04;;;;;;;4.57;2.60;;;7.10;99.90;;;;;;4900611;29;20187;-69
2022/06/10 12:32:50;;;;;;;3.20;2.10;;;7.20;99.90;;;;;;4940090;28;20039;-70
2022/06/10 12:35:21;;;;;;;4.50;2.97;;;7.20;99.90;;;;;;4943252;29;20035;-64
2022/06/10 12:37:59;;;;;;;4.10;2.63;;;7.10;99.90;;;;;;4943863;29;20119;-64
2022/06/10 12:40:34;;;;;;;5.32;2.63;;;6.90;99.90;;;;;;4940749;29;20062;-64
2022/06/10 12:43:12;;;;;;;3.58;3.08;;;6.80;99.90;;;;;;4942392;29;20154;-74
2022/06/10 12:46:28;;;;;;;3.85;2.90;;;6.70;99.90;;;;;;4943397;29;20096;-67
2022/06/10 12:49:05;;;;;;;6.85;2.70;;;6.60;99.90;;;;;;4940079;29;20093;-64
2022/06/10 12:51:40;;;;;;;4.10;2.65;;;6.60;99.90;;;;;;4944149;29;20059;-72
2022/06/10 12:54:13;;;;;;;6.03;3.00;;;6.50;99.90;;;;;;4942960;29;20528;-63
2022/06/10 12:56:40;;;;;;;4.95;3.28;;;6.70;99.90;;;;;;4937342;29;20063;-71
2022/06/10 12:59:07;;;;;;;4.55;3.08;;;6.70;99.90;;;;;;4930102;29;20082;-65
2022/06/10 13:01:34;;;;;;;6.30;3.67;;;6.80;99.90;;;;;;4930701;29;20028;-67
2022/06/10 13:04:06;;;;;;;5.75;3.38;;;6.70;99.90;;;;;;4929856;29;20119;-64
2022/06/10 13:06:45;;;;;;;5.35;3.50;;;6.70;99.90;;;;;;4931188;29;21741;-73
2022/06/10 13:09:12;;;;;;;4.65;3.15;;;6.60;99.90;;;;;;4928666;29;20059;-65
2022/06/10 13:12:12;;;;;;;4.80;2.70;;;6.50;99.90;;;;;;4929527;29;20065;-65
2022/06/10 13:14:47;;;;;;;3.75;3.13;;;6.50;99.90;;;;;;4926014;29;20050;-69
2022/06/10 13:17:25;;;;;;;6.30;3.38;;;6.30;99.90;;;;;;4930287;29;20567;-64
2022/06/10 13:19:54;;;;;;;5.18;3.60;;;6.20;99.90;;;;;;4931333;29;20031;-65
2022/06/10 13:22:22;;;;;;;5.78;3.17;;;6.20;99.90;;;;;;4931534;29;20031;-69
2022/06/10 13:24:55;;;;;;;7.88;3.58;;;6.20;99.90;;;;;;4929757;29;20028;-70
2022/06/10 13:27:26;;;;;;;;;;;6.30;99.90;;;;;;4931905;29;20105;-65
2022/06/10 13:29:56;;;;;;;5.07;3.25;;;6.40;99.90;;;;;;4937324;29;19918;-69
2022/06/10 13:32:25;;;;;;;5.43;3.42;;;6.40;99.90;;;;;;4948631;28;20031;-65
2022/06/10 13:35:03;;;;;;;5.43;3.55;;;6.40;99.90;;;;;;4948556;28;20042;-65
2022/06/10 13:37:37;;;;;;;3.70;3.00;;;6.40;99.90;;;;;;4948155;28;20016;-69
2022/06/10 13:40:07;;;;;;;4.65;3.35;;;6.50;99.90;;;;;;4948361;28;20027;-64
2022/06/10 13:42:40;;;;;;;4.43;3.53;;;6.40;99.90;;;;;;4949718;28;20102;-71